Time,TemperatureF,DewpointF,PressureIn,WindDirection,WindDirectionDegrees,WindSpeedMPH,WindSpeedGustMPH,Humidity,HourlyPrecipIn,Conditions,Clouds,dailyrainin,SoftwareType,DateUTC
2013-02-12 00:05:00,57.8,55.0,29.93,NNE,18,0.0,5.0,90,0.00,,,0.00,weatherlink.com 1.10,2013-02-12 05:05:00,
2013-02-12 00:20:00,57.5,55.0,29.93,NNW,333,0.0,3.0,90,0.00,,,0.00,weatherlink.com 1.10,2013-02-12 05:20:00,
2013-02-12 00:35:00,57.2,54.0,29.94,NW,323,0.0,2.0,90,0.00,,,0.00,weatherlink.com 1.10,2013-02-12 05:35:00,
2013-02-12 00:50:00,56.9,54.0,29.93,WNW,288,1.0,3.0,91,0.00,,,0.00,weatherlink.com 1.10,2013-02-12 05:50:00,
2013-02-12 01:05:00,56.7,54.0,29.94,WNW,300,1.0,2.0,91,0.00,,,0.00,weatherlink.com 1.10,2013-02-12 06:05:00,
2013-02-12 01:20:00,56.5,54.0,29.95,West,280,2.0,2.0,91,0.00,,,0.00,weatherlink.com 1.10,2013-02-12 06:20:00,
2013-02-12 01:35:00,56.5,54.0,29.95,NW,321,2.0,5.0,90,0.00,,,0.00,weatherlink.com 1.10,2013-02-12 06:35:00,
2013-02-12 01:50:00,56.2,53.0,29.95,WNW,297,0.0,4.0,90,0.00,,,0.00,weatherlink.com 1.10,2013-02-12 06:50:00,
2013-02-12 02:05:00,55.8,53.0,29.96,NW,316,2.0,4.0,90,0.00,,,0.00,weatherlink.com 1.10,2013-02-12 07:05:00,
2013-02-12 02:20:00,55.6,53.0,29.96,NW,319,2.0,5.0,90,0.00,,,0.00,weatherlink.com 1.10,2013-02-12 07:20:00,
2013-02-12 02:36:00,55.5,53.0,29.96,WNW,299,2.0,5.0,90,0.00,,,0.00,weatherlink.com 1.10,2013-02-12 07:36:00,
2013-02-12 02:51:00,55.1,52.0,29.96,NNW,335,2.0,5.0,89,0.00,,,0.00,weatherlink.com 1.10,2013-02-12 07:51:00,
2013-02-12 03:06:00,54.8,52.0,29.96,NW,313,0.0,4.0,90,0.00,,,0.00,weatherlink.com 1.10,2013-02-12 08:06:00,
2013-02-12 03:21:00,54.4,52.0,29.96,NW,321,1.0,3.0,90,0.00,,,0.00,weatherlink.com 1.10,2013-02-12 08:21:00,
2013-02-12 03:36:00,54.1,51.0,29.97,WNW,294,0.0,3.0,89,0.00,,,0.00,weatherlink.com 1.10,2013-02-12 08:36:00,
2013-02-12 03:51:00,53.5,50.0,29.97,WNW,294,0.0,4.0,89,0.00,,,0.00,weatherlink.com 1.10,2013-02-12 08:51:00,
2013-02-12 04:06:00,52.9,49.0,29.97,WNW,299,1.0,6.0,87,0.00,,,0.00,weatherlink.com 1.10,2013-02-12 09:06:00,
2013-02-12 04:21:00,52.5,48.0,29.97,WNW,290,0.0,5.0,85,0.00,,,0.00,weatherlink.com 1.10,2013-02-12 09:21:00,
2013-02-12 04:36:00,51.9,46.0,29.98,NW,312,1.0,4.0,81,0.00,,,0.00,weatherlink.com 1.10,2013-02-12 09:36:00,
2013-02-12 04:51:00,51.1,45.0,29.97,WNW,302,0.0,1.0,80,0.00,,,0.00,weatherlink.com 1.10,2013-02-12 09:51:00,
2013-02-12 05:06:00,50.0,44.0,29.98,NW,311,0.0,1.0,81,0.00,,,0.00,weatherlink.com 1.10,2013-02-12 10:06:00,
2013-02-12 05:21:00,49.3,43.0,29.99,West,281,0.0,1.0,80,0.00,,,0.00,weatherlink.com 1.10,2013-02-12 10:21:00,
2013-02-12 05:36:00,48.7,41.0,29.99,NNW,327,0.0,2.0,76,0.00,,,0.00,weatherlink.com 1.10,2013-02-12 10:36:00,
2013-02-12 05:51:00,48.5,40.0,29.98,NW,323,0.0,3.0,73,0.00,,,0.00,weatherlink.com 1.10,2013-02-12 10:51:00,
2013-02-12 06:06:00,48.5,39.0,29.99,WNW,301,0.0,4.0,70,0.00,,,0.00,weatherlink.com 1.10,2013-02-12 11:06:00,
2013-02-12 06:21:00,48.6,36.0,30.00,North,354,1.0,4.0,63,0.00,,,0.00,weatherlink.com 1.10,2013-02-12 11:21:00,
2013-02-12 06:36:00,47.9,35.0,30.00,NNW,327,0.0,3.0,61,0.00,,,0.00,weatherlink.com 1.10,2013-02-12 11:36:00,
2013-02-12 06:51:00,47.3,35.0,30.01,NW,307,0.0,4.0,63,0.00,,,0.00,weatherlink.com 1.10,2013-02-12 11:51:00,
2013-02-12 07:06:00,46.5,34.0,30.01,NW,312,0.0,3.0,61,0.00,,,0.00,weatherlink.com 1.10,2013-02-12 12:06:00,
2013-02-12 07:21:00,46.3,32.0,30.02,WNW,299,0.0,2.0,58,0.00,,,0.00,weatherlink.com 1.10,2013-02-12 12:21:00,
2013-02-12 07:36:00,46.6,32.0,30.03,WNW,290,1.0,3.0,58,0.00,,,0.00,weatherlink.com 1.10,2013-02-12 12:36:00,
2013-02-12 07:51:00,46.4,32.0,30.04,NW,317,0.0,3.0,57,0.00,,,0.00,weatherlink.com 1.10,2013-02-12 12:51:00,
2013-02-12 08:06:00,46.3,32.0,30.04,NW,307,0.0,1.0,59,0.00,,,0.00,weatherlink.com 1.10,2013-02-12 13:06:00,
2013-02-12 08:21:00,46.6,33.0,30.05,WSW,250,0.0,2.0,59,0.00,,,0.00,weatherlink.com 1.10,2013-02-12 13:21:00,
2013-02-12 08:36:00,47.9,31.0,30.05,NW,306,1.0,3.0,53,0.00,,,0.00,weatherlink.com 1.10,2013-02-12 13:36:00,
2013-02-12 08:51:00,49.7,32.0,30.05,WNW,290,1.0,3.0,50,0.00,,,0.00,weatherlink.com 1.10,2013-02-12 13:51:00,
2013-02-12 09:06:00,51.0,31.0,30.05,NNW,330,1.0,4.0,47,0.00,,,0.00,weatherlink.com 1.10,2013-02-12 14:06:00,
2013-02-12 09:22:00,52.2,31.0,30.06,WNW,302,1.0,4.0,45,0.00,,,0.00,weatherlink.com 1.10,2013-02-12 14:22:00,
2013-02-12 09:37:00,52.8,30.0,30.07,NW,321,2.0,8.0,42,0.00,,,0.00,weatherlink.com 1.10,2013-02-12 14:37:00,
2013-02-12 09:52:00,53.4,29.0,30.08,NW,321,6.0,10.0,40,0.00,,,0.00,weatherlink.com 1.10,2013-02-12 14:52:00,
2013-02-12 10:07:00,54.4,30.0,30.08,NW,325,3.0,7.0,39,0.00,,,0.00,weatherlink.com 1.10,2013-02-12 15:07:00,
2013-02-12 10:22:00,53.9,29.0,30.07,North,352,1.0,9.0,38,0.00,,,0.00,weatherlink.com 1.10,2013-02-12 15:22:00,
2013-02-12 10:37:00,55.4,29.0,30.08,NNW,327,2.0,5.0,37,0.00,,,0.00,weatherlink.com 1.10,2013-02-12 15:37:00,
2013-02-12 10:52:00,55.2,28.0,30.08,WNW,301,3.0,11.0,36,0.00,,,0.00,weatherlink.com 1.10,2013-02-12 15:52:00,
2013-02-12 11:07:00,55.8,29.0,30.08,West,274,3.0,7.0,36,0.00,,,0.00,weatherlink.com 1.10,2013-02-12 16:07:00,
2013-02-12 11:22:00,56.6,30.0,30.08,NW,319,6.0,9.0,37,0.00,,,0.00,weatherlink.com 1.10,2013-02-12 16:22:00,
2013-02-12 11:37:00,56.8,30.0,30.07,NW,316,1.0,7.0,36,0.00,,,0.00,weatherlink.com 1.10,2013-02-12 16:37:00,
2013-02-12 12:07:00,58.2,31.0,30.05,North,5,0.0,4.0,36,0.00,,,0.00,weatherlink.com 1.10,2013-02-12 17:07:00,
2013-02-12 12:22:00,59.0,30.0,30.04,East,86,1.0,4.0,33,0.00,,,0.00,weatherlink.com 1.10,2013-02-12 17:22:00,
2013-02-12 12:37:00,59.7,29.0,30.02,SE,139,2.0,4.0,31,0.00,,,0.00,weatherlink.com 1.10,2013-02-12 17:37:00,
2013-02-12 12:52:00,60.7,30.0,30.00,NNW,335,0.0,4.0,31,0.00,,,0.00,weatherlink.com 1.10,2013-02-12 17:52:00,
2013-02-12 13:07:00,61.4,30.0,30.01,SW,229,2.0,3.0,31,0.00,,,0.00,weatherlink.com 1.10,2013-02-12 18:07:00,
2013-02-12 13:22:00,60.0,31.0,30.01,NW,316,2.0,6.0,33,0.00,,,0.00,weatherlink.com 1.10,2013-02-12 18:22:00,
2013-02-12 13:37:00,60.6,30.0,30.00,NNW,333,2.0,3.0,32,0.00,,,0.00,weatherlink.com 1.10,2013-02-12 18:37:00,
2013-02-12 13:52:00,60.9,33.0,29.99,NW,304,0.0,5.0,35,0.00,,,0.00,weatherlink.com 1.10,2013-02-12 18:52:00,
2013-02-12 14:07:00,61.8,31.0,29.97,SW,229,3.0,3.0,32,0.00,,,0.00,weatherlink.com 1.10,2013-02-12 19:07:00,
2013-02-12 14:22:00,60.5,30.0,29.96,WNW,301,1.0,4.0,32,0.00,,,0.00,weatherlink.com 1.10,2013-02-12 19:22:00,
2013-02-12 14:37:00,60.1,30.0,29.97,WNW,300,2.0,5.0,32,0.00,,,0.00,weatherlink.com 1.10,2013-02-12 19:37:00,
2013-02-12 14:52:00,60.8,30.0,29.99,North,354,0.0,8.0,31,0.00,,,0.00,weatherlink.com 1.10,2013-02-12 19:52:00,
2013-02-12 15:07:00,60.7,29.0,29.98,WNW,283,0.0,6.0,30,0.00,,,0.00,weatherlink.com 1.10,2013-02-12 20:07:00,
2013-02-12 15:22:00,59.9,31.0,29.98,NW,307,1.0,3.0,33,0.00,,,0.00,weatherlink.com 1.10,2013-02-12 20:22:00,
2013-02-12 15:37:00,59.2,31.0,29.98,NW,316,3.0,3.0,34,0.00,,,0.00,weatherlink.com 1.10,2013-02-12 20:37:00,
2013-02-12 15:52:00,58.8,30.0,29.98,NW,321,0.0,3.0,33,0.00,,,0.00,weatherlink.com 1.10,2013-02-12 20:52:00,
2013-02-12 16:07:00,58.6,29.0,29.97,WNW,294,1.0,4.0,33,0.00,,,0.00,weatherlink.com 1.10,2013-02-12 21:07:00,
2013-02-12 16:22:00,58.4,31.0,29.97,WNW,284,0.0,2.0,35,0.00,,,0.00,weatherlink.com 1.10,2013-02-12 21:22:00,
2013-02-12 16:37:00,57.9,30.0,29.98,NW,304,0.0,2.0,35,0.00,,,0.00,weatherlink.com 1.10,2013-02-12 21:37:00,
2013-02-12 16:52:00,57.5,31.0,29.99,NW,315,0.0,2.0,37,0.00,,,0.00,weatherlink.com 1.10,2013-02-12 21:52:00,
2013-02-12 17:07:00,57.2,32.0,29.99,WNW,302,0.0,2.0,38,0.00,,,0.00,weatherlink.com 1.10,2013-02-12 22:07:00,
2013-02-12 17:22:00,56.6,30.0,29.99,NW,304,1.0,1.0,37,0.00,,,0.00,weatherlink.com 1.10,2013-02-12 22:22:00,
2013-02-12 17:37:00,56.0,33.0,29.98,NW,316,0.0,1.0,42,0.00,,,0.00,weatherlink.com 1.10,2013-02-12 22:37:00,
2013-02-12 17:52:00,55.0,34.0,29.98,NW,316,0.0,0.0,46,0.00,,,0.00,weatherlink.com 1.10,2013-02-12 22:52:00,
2013-02-12 18:07:00,54.1,34.0,29.97,NW,316,0.0,0.0,47,0.00,,,0.00,weatherlink.com 1.10,2013-02-12 23:07:00,
2013-02-12 18:22:00,53.0,37.0,29.98,NW,316,0.0,1.0,55,0.00,,,0.00,weatherlink.com 1.10,2013-02-12 23:22:00,
2013-02-12 18:37:00,52.4,36.0,29.98,NW,316,0.0,0.0,55,0.00,,,0.00,weatherlink.com 1.10,2013-02-12 23:37:00,
2013-02-12 18:52:00,52.0,37.0,29.97,NW,316,0.0,1.0,58,0.00,,,0.00,weatherlink.com 1.10,2013-02-12 23:52:00,
2013-02-12 19:22:00,51.2,38.0,29.97,NW,316,0.0,0.0,61,0.00,,,0.00,weatherlink.com 1.10,2013-02-13 00:22:00,
2013-02-12 19:37:00,50.8,38.0,29.96,NW,316,0.0,0.0,61,0.00,,,0.00,weatherlink.com 1.10,2013-02-13 00:37:00,
2013-02-12 19:52:00,50.4,39.0,29.95,NW,316,0.0,0.0,64,0.00,,,0.00,weatherlink.com 1.10,2013-02-13 00:52:00,
2013-02-12 20:07:00,50.3,38.0,29.93,NW,316,0.0,0.0,62,0.00,,,0.00,weatherlink.com 1.10,2013-02-13 01:07:00,
2013-02-12 20:22:00,50.1,38.0,29.91,NW,316,0.0,0.0,64,0.00,,,0.00,weatherlink.com 1.10,2013-02-13 01:22:00,
2013-02-12 20:37:00,49.7,38.0,29.91,NW,316,0.0,0.0,65,0.00,,,0.00,weatherlink.com 1.10,2013-02-13 01:37:00,
2013-02-12 20:52:00,49.5,38.0,29.94,NW,316,0.0,0.0,65,0.00,,,0.00,weatherlink.com 1.10,2013-02-13 01:52:00,
2013-02-12 21:07:00,49.4,37.0,29.97,NW,316,0.0,0.0,62,0.00,,,0.00,weatherlink.com 1.10,2013-02-13 02:07:00,
2013-02-12 21:22:00,49.6,37.0,29.98,NW,316,0.0,0.0,63,0.00,,,0.00,weatherlink.com 1.10,2013-02-13 02:22:00,
2013-02-12 21:37:00,49.6,37.0,29.98,NW,316,0.0,0.0,63,0.00,,,0.00,weatherlink.com 1.10,2013-02-13 02:37:00,
2013-02-12 21:52:00,49.7,39.0,29.98,NW,316,0.0,0.0,67,0.00,,,0.00,weatherlink.com 1.10,2013-02-13 02:52:00,
2013-02-12 22:07:00,49.5,39.0,29.99,NW,316,0.0,0.0,68,0.00,,,0.00,weatherlink.com 1.10,2013-02-13 03:07:00,
2013-02-12 22:22:00,49.3,38.0,29.99,NW,316,0.0,0.0,66,0.00,,,0.00,weatherlink.com 1.10,2013-02-13 03:22:00,
2013-02-12 22:37:00,49.2,41.0,29.99,NW,316,0.0,0.0,72,0.00,,,0.00,weatherlink.com 1.10,2013-02-13 03:37:00,
2013-02-12 22:52:00,48.9,40.0,29.98,WNW,290,0.0,0.0,71,0.00,,,0.00,weatherlink.com 1.10,2013-02-13 03:52:00,
2013-02-12 23:07:00,49.0,40.0,29.96,North,354,0.0,0.0,71,0.00,,,0.00,weatherlink.com 1.10,2013-02-13 04:07:00,
2013-02-12 23:22:00,48.9,39.0,29.96,North,356,0.0,0.0,70,0.00,,,0.00,weatherlink.com 1.10,2013-02-13 04:22:00,
2013-02-12 23:37:00,48.9,41.0,29.95,North,356,0.0,0.0,74,0.00,,,0.00,weatherlink.com 1.10,2013-02-13 04:37:00,
2013-02-12 23:52:00,48.8,41.0,29.94,North,356,0.0,0.0,75,0.00,,,0.00,weatherlink.com 1.10,2013-02-13 04:52:00,